Terminal Aerodrome Forecast
Issued by NWS Boston, MA

Home | Current Version | Previous Version | Text Only | Print | Product List | Glossary On
Versions: 1 2 3 4 5 6 7 8 9 10 11 12 13 14 15 16 17 18 19 20 21 22 23 24 25 26 27 28 29 30 31 32 33 34 35 36 37 38 39 40 41
000
FTUS41 KBOX 240542 AAB
TAFPVD
TAF AMD
KPVD 240542Z 2406/2506 02007KT P6SM VCSH OVC060
     FM240900 03006KT P6SM OVC010
     FM241000 04006KT P6SM VCSH OVC010
     FM241500 04005KT 5SM BR OVC015
     FM241600 05005KT P6SM OVC015
     FM241900 11004KT P6SM OVC025
     FM242000 23004KT P6SM OVC040=

USA.gov is the U.S. government's official web portal to all federal, state and local government web resources and services.